sensor_id;sensor_type;location;lat;lon;timestamp;P1;durP1;ratioP1;P2;durP2;ratioP2
18669;SDS011;9464;44.918;9.670;2022-12-07T00:01:16;9.57;;;5.57;;
18669;SDS011;9464;44.918;9.670;2022-12-07T00:03:45;8.67;;;5.83;;
18669;SDS011;9464;44.918;9.670;2022-12-07T00:06:16;7.90;;;5.23;;
18669;SDS011;9464;44.918;9.670;2022-12-07T00:08:45;9.73;;;5.67;;
18669;SDS011;9464;44.918;9.670;2022-12-07T00:11:15;10.27;;;5.10;;
18669;SDS011;9464;44.918;9.670;2022-12-07T00:13:44;7.57;;;5.93;;
18669;SDS011;9464;44.918;9.670;2022-12-07T00:16:13;7.60;;;5.47;;
18669;SDS011;9464;44.918;9.670;2022-12-07T00:18:42;9.80;;;5.50;;
18669;SDS011;9464;44.918;9.670;2022-12-07T00:21:12;9.43;;;5.53;;
18669;SDS011;9464;44.918;9.670;2022-12-07T00:23:42;8.73;;;5.80;;
18669;SDS011;9464;44.918;9.670;2022-12-07T00:26:11;8.80;;;5.33;;
18669;SDS011;9464;44.918;9.670;2022-12-07T00:28:40;8.53;;;5.10;;
18669;SDS011;9464;44.918;9.670;2022-12-07T00:31:09;8.13;;;5.40;;
18669;SDS011;9464;44.918;9.670;2022-12-07T00:33:38;8.17;;;5.20;;
18669;SDS011;9464;44.918;9.670;2022-12-07T00:36:07;8.50;;;5.00;;
18669;SDS011;9464;44.918;9.670;2022-12-07T00:38:36;14.60;;;5.77;;
18669;SDS011;9464;44.918;9.670;2022-12-07T00:41:07;8.03;;;5.43;;
18669;SDS011;9464;44.918;9.670;2022-12-07T00:43:35;12.13;;;5.60;;
18669;SDS011;9464;44.918;9.670;2022-12-07T00:46:04;8.13;;;5.67;;
18669;SDS011;9464;44.918;9.670;2022-12-07T00:48:33;9.90;;;6.17;;
18669;SDS011;9464;44.918;9.670;2022-12-07T00:51:02;10.40;;;6.17;;
18669;SDS011;9464;44.918;9.670;2022-12-07T00:53:31;8.20;;;5.60;;
18669;SDS011;9464;44.918;9.670;2022-12-07T00:56:08;10.50;;;5.77;;
18669;SDS011;9464;44.918;9.670;2022-12-07T00:58:37;11.50;;;6.93;;
18669;SDS011;9464;44.918;9.670;2022-12-07T01:01:06;10.10;;;5.33;;
18669;SDS011;9464;44.918;9.670;2022-12-07T01:03:36;7.63;;;4.67;;
18669;SDS011;9464;44.918;9.670;2022-12-07T01:06:05;10.07;;;5.37;;
18669;SDS011;9464;44.918;9.670;2022-12-07T01:08:33;7.53;;;5.03;;
18669;SDS011;9464;44.918;9.670;2022-12-07T01:11:02;7.50;;;5.00;;
18669;SDS011;9464;44.918;9.670;2022-12-07T01:13:33;10.80;;;5.63;;
18669;SDS011;9464;44.918;9.670;2022-12-07T01:16:03;8.60;;;5.77;;
18669;SDS011;9464;44.918;9.670;2022-12-07T01:18:33;7.33;;;5.23;;
18669;SDS011;9464;44.918;9.670;2022-12-07T01:21:03;6.87;;;4.53;;
18669;SDS011;9464;44.918;9.670;2022-12-07T01:23:32;6.37;;;4.73;;
18669;SDS011;9464;44.918;9.670;2022-12-07T01:26:02;6.10;;;4.23;;
18669;SDS011;9464;44.918;9.670;2022-12-07T01:28:33;8.23;;;3.83;;
18669;SDS011;9464;44.918;9.670;2022-12-07T01:31:02;7.90;;;4.10;;
18669;SDS011;9464;44.918;9.670;2022-12-07T01:33:31;7.57;;;3.67;;
18669;SDS011;9464;44.918;9.670;2022-12-07T01:36:01;6.33;;;3.80;;
18669;SDS011;9464;44.918;9.670;2022-12-07T01:38:29;10.17;;;5.00;;
18669;SDS011;9464;44.918;9.670;2022-12-07T01:40:58;13.53;;;5.13;;
18669;SDS011;9464;44.918;9.670;2022-12-07T01:43:28;11.90;;;5.83;;
18669;SDS011;9464;44.918;9.670;2022-12-07T01:45:58;6.87;;;4.97;;
18669;SDS011;9464;44.918;9.670;2022-12-07T01:48:27;5.93;;;4.00;;
18669;SDS011;9464;44.918;9.670;2022-12-07T01:50:57;6.47;;;4.23;;
18669;SDS011;9464;44.918;9.670;2022-12-07T01:53:28;5.87;;;3.90;;
18669;SDS011;9464;44.918;9.670;2022-12-07T01:55:58;7.43;;;3.00;;
18669;SDS011;9464;44.918;9.670;2022-12-07T01:58:27;5.27;;;3.80;;
18669;SDS011;9464;44.918;9.670;2022-12-07T02:00:57;6.30;;;3.70;;
18669;SDS011;9464;44.918;9.670;2022-12-07T02:03:27;5.73;;;3.30;;
18669;SDS011;9464;44.918;9.670;2022-12-07T02:05:57;6.40;;;3.37;;
18669;SDS011;9464;44.918;9.670;2022-12-07T02:08:26;7.93;;;3.63;;
18669;SDS011;9464;44.918;9.670;2022-12-07T02:10:55;6.07;;;3.57;;
18669;SDS011;9464;44.918;9.670;2022-12-07T02:13:24;4.77;;;3.30;;
18669;SDS011;9464;44.918;9.670;2022-12-07T02:18:47;4.87;;;3.50;;
18669;SDS011;9464;44.918;9.670;2022-12-07T02:21:19;4.83;;;3.37;;
18669;SDS011;9464;44.918;9.670;2022-12-07T02:24:10;5.40;;;3.73;;
18669;SDS011;9464;44.918;9.670;2022-12-07T02:26:53;6.43;;;3.37;;
18669;SDS011;9464;44.918;9.670;2022-12-07T02:29:25;5.33;;;3.17;;
18669;SDS011;9464;44.918;9.670;2022-12-07T02:31:57;5.80;;;3.80;;
18669;SDS011;9464;44.918;9.670;2022-12-07T02:34:29;5.33;;;3.10;;
18669;SDS011;9464;44.918;9.670;2022-12-07T02:37:00;6.43;;;3.93;;
18669;SDS011;9464;44.918;9.670;2022-12-07T02:39:31;6.63;;;4.00;;
18669;SDS011;9464;44.918;9.670;2022-12-07T02:42:02;5.53;;;3.53;;
18669;SDS011;9464;44.918;9.670;2022-12-07T02:44:33;8.57;;;3.70;;
18669;SDS011;9464;44.918;9.670;2022-12-07T02:47:02;4.60;;;3.37;;
18669;SDS011;9464;44.918;9.670;2022-12-07T02:49:31;6.97;;;3.80;;
18669;SDS011;9464;44.918;9.670;2022-12-07T02:52:00;9.83;;;3.97;;
18669;SDS011;9464;44.918;9.670;2022-12-07T02:54:28;5.57;;;3.47;;
18669;SDS011;9464;44.918;9.670;2022-12-07T02:56:58;6.17;;;3.67;;
18669;SDS011;9464;44.918;9.670;2022-12-07T02:59:33;7.27;;;3.63;;
18669;SDS011;9464;44.918;9.670;2022-12-07T03:02:10;5.27;;;3.70;;
18669;SDS011;9464;44.918;9.670;2022-12-07T03:04:42;7.13;;;3.87;;
18669;SDS011;9464;44.918;9.670;2022-12-07T03:07:16;10.63;;;4.03;;
18669;SDS011;9464;44.918;9.670;2022-12-07T03:09:48;9.30;;;3.90;;
18669;SDS011;9464;44.918;9.670;2022-12-07T03:12:21;5.57;;;4.60;;
18669;SDS011;9464;44.918;9.670;2022-12-07T03:14:55;6.17;;;3.87;;
18669;SDS011;9464;44.918;9.670;2022-12-07T03:17:26;6.47;;;3.93;;
18669;SDS011;9464;44.918;9.670;2022-12-07T03:19:56;6.53;;;4.50;;
18669;SDS011;9464;44.918;9.670;2022-12-07T03:22:27;9.33;;;4.20;;
18669;SDS011;9464;44.918;9.670;2022-12-07T03:24:58;7.17;;;4.43;;
18669;SDS011;9464;44.918;9.670;2022-12-07T03:27:27;6.50;;;4.63;;
18669;SDS011;9464;44.918;9.670;2022-12-07T03:29:59;6.00;;;4.10;;
18669;SDS011;9464;44.918;9.670;2022-12-07T03:32:29;5.93;;;3.80;;
18669;SDS011;9464;44.918;9.670;2022-12-07T03:35:00;5.53;;;3.60;;
18669;SDS011;9464;44.918;9.670;2022-12-07T03:37:31;11.27;;;4.30;;
18669;SDS011;9464;44.918;9.670;2022-12-07T03:40:04;7.03;;;4.13;;
18669;SDS011;9464;44.918;9.670;2022-12-07T03:42:34;6.00;;;4.33;;
18669;SDS011;9464;44.918;9.670;2022-12-07T03:45:04;6.27;;;3.90;;
18669;SDS011;9464;44.918;9.670;2022-12-07T03:47:34;5.83;;;3.97;;
18669;SDS011;9464;44.918;9.670;2022-12-07T03:50:06;8.17;;;4.90;;
18669;SDS011;9464;44.918;9.670;2022-12-07T03:52:37;5.67;;;4.20;;
18669;SDS011;9464;44.918;9.670;2022-12-07T03:55:08;7.97;;;4.30;;
18669;SDS011;9464;44.918;9.670;2022-12-07T03:57:39;5.20;;;4.20;;
18669;SDS011;9464;44.918;9.670;2022-12-07T04:00:11;6.10;;;4.00;;
18669;SDS011;9464;44.918;9.670;2022-12-07T04:02:39;5.83;;;3.73;;
18669;SDS011;9464;44.918;9.670;2022-12-07T04:05:09;5.07;;;3.63;;
18669;SDS011;9464;44.918;9.670;2022-12-07T04:07:38;8.00;;;4.37;;
18669;SDS011;9464;44.918;9.670;2022-12-07T04:10:07;6.27;;;4.00;;
18669;SDS011;9464;44.918;9.670;2022-12-07T04:12:35;5.70;;;3.70;;
18669;SDS011;9464;44.918;9.670;2022-12-07T04:15:04;6.03;;;3.87;;
18669;SDS011;9464;44.918;9.670;2022-12-07T04:17:34;7.33;;;4.30;;
18669;SDS011;9464;44.918;9.670;2022-12-07T04:20:03;7.83;;;4.27;;
18669;SDS011;9464;44.918;9.670;2022-12-07T04:22:32;5.97;;;4.07;;
18669;SDS011;9464;44.918;9.670;2022-12-07T04:25:00;8.83;;;4.53;;
18669;SDS011;9464;44.918;9.670;2022-12-07T04:27:29;7.47;;;4.30;;
18669;SDS011;9464;44.918;9.670;2022-12-07T04:29:57;7.37;;;4.20;;
18669;SDS011;9464;44.918;9.670;2022-12-07T04:32:27;9.63;;;4.63;;
18669;SDS011;9464;44.918;9.670;2022-12-07T04:34:56;6.63;;;4.17;;
18669;SDS011;9464;44.918;9.670;2022-12-07T04:37:25;10.60;;;4.43;;
18669;SDS011;9464;44.918;9.670;2022-12-07T04:39:53;7.27;;;4.40;;
18669;SDS011;9464;44.918;9.670;2022-12-07T04:42:22;6.17;;;4.33;;
18669;SDS011;9464;44.918;9.670;2022-12-07T04:44:50;6.47;;;4.67;;
18669;SDS011;9464;44.918;9.670;2022-12-07T04:47:19;7.20;;;5.00;;
18669;SDS011;9464;44.918;9.670;2022-12-07T04:49:47;7.80;;;5.23;;
18669;SDS011;9464;44.918;9.670;2022-12-07T04:52:17;6.67;;;4.73;;
18669;SDS011;9464;44.918;9.670;2022-12-07T04:54:45;9.03;;;4.90;;
18669;SDS011;9464;44.918;9.670;2022-12-07T04:57:14;12.53;;;5.60;;
18669;SDS011;9464;44.918;9.670;2022-12-07T04:59:42;8.30;;;5.40;;
18669;SDS011;9464;44.918;9.670;2022-12-07T05:02:11;9.80;;;5.63;;
18669;SDS011;9464;44.918;9.670;2022-12-07T05:04:40;8.67;;;5.53;;
18669;SDS011;9464;44.918;9.670;2022-12-07T05:07:08;10.67;;;6.40;;
18669;SDS011;9464;44.918;9.670;2022-12-07T05:09:38;10.93;;;6.13;;
18669;SDS011;9464;44.918;9.670;2022-12-07T05:12:06;9.87;;;5.77;;
18669;SDS011;9464;44.918;9.670;2022-12-07T05:14:35;8.90;;;5.23;;
18669;SDS011;9464;44.918;9.670;2022-12-07T05:17:03;7.53;;;4.87;;
18669;SDS011;9464;44.918;9.670;2022-12-07T05:19:32;7.37;;;4.97;;
18669;SDS011;9464;44.918;9.670;2022-12-07T05:22:00;8.60;;;4.80;;
18669;SDS011;9464;44.918;9.670;2022-12-07T05:24:29;7.23;;;4.03;;
18669;SDS011;9464;44.918;9.670;2022-12-07T05:26:59;9.23;;;4.63;;
18669;SDS011;9464;44.918;9.670;2022-12-07T05:29:27;7.13;;;5.03;;
18669;SDS011;9464;44.918;9.670;2022-12-07T05:31:56;6.63;;;4.60;;
18669;SDS011;9464;44.918;9.670;2022-12-07T05:34:24;7.60;;;4.67;;
18669;SDS011;9464;44.918;9.670;2022-12-07T05:36:53;9.87;;;5.40;;
18669;SDS011;9464;44.918;9.670;2022-12-07T05:39:21;12.97;;;7.37;;
18669;SDS011;9464;44.918;9.670;2022-12-07T05:41:50;14.20;;;8.13;;
18669;SDS011;9464;44.918;9.670;2022-12-07T05:44:37;10.93;;;5.80;;
18669;SDS011;9464;44.918;9.670;2022-12-07T05:47:06;11.20;;;5.90;;
18669;SDS011;9464;44.918;9.670;2022-12-07T05:49:34;8.80;;;5.20;;
18669;SDS011;9464;44.918;9.670;2022-12-07T05:52:03;12.57;;;9.73;;
18669;SDS011;9464;44.918;9.670;2022-12-07T05:54:32;12.93;;;6.07;;
18669;SDS011;9464;44.918;9.670;2022-12-07T05:57:00;10.53;;;5.57;;
18669;SDS011;9464;44.918;9.670;2022-12-07T05:59:29;11.73;;;4.70;;
18669;SDS011;9464;44.918;9.670;2022-12-07T06:01:58;9.43;;;4.70;;
18669;SDS011;9464;44.918;9.670;2022-12-07T06:04:28;10.83;;;5.50;;
18669;SDS011;9464;44.918;9.670;2022-12-07T06:06:56;11.10;;;5.97;;
18669;SDS011;9464;44.918;9.670;2022-12-07T06:09:25;15.33;;;6.37;;
18669;SDS011;9464;44.918;9.670;2022-12-07T06:11:54;15.23;;;6.23;;
18669;SDS011;9464;44.918;9.670;2022-12-07T06:14:40;10.23;;;5.00;;
18669;SDS011;9464;44.918;9.670;2022-12-07T06:17:10;11.17;;;4.93;;
18669;SDS011;9464;44.918;9.670;2022-12-07T06:19:39;8.57;;;5.10;;
18669;SDS011;9464;44.918;9.670;2022-12-07T06:22:08;5.87;;;4.40;;
18669;SDS011;9464;44.918;9.670;2022-12-07T06:24:38;6.53;;;4.20;;
18669;SDS011;9464;44.918;9.670;2022-12-07T06:27:06;10.17;;;4.33;;
18669;SDS011;9464;44.918;9.670;2022-12-07T06:29:35;7.70;;;4.53;;
18669;SDS011;9464;44.918;9.670;2022-12-07T06:32:04;7.77;;;4.20;;
18669;SDS011;9464;44.918;9.670;2022-12-07T06:34:34;7.80;;;4.43;;
18669;SDS011;9464;44.918;9.670;2022-12-07T06:37:02;6.20;;;4.60;;
18669;SDS011;9464;44.918;9.670;2022-12-07T06:39:31;8.10;;;4.67;;
18669;SDS011;9464;44.918;9.670;2022-12-07T06:41:59;8.47;;;5.00;;
18669;SDS011;9464;44.918;9.670;2022-12-07T06:44:27;9.87;;;5.20;;
18669;SDS011;9464;44.918;9.670;2022-12-07T06:46:56;9.13;;;5.60;;
18669;SDS011;9464;44.918;9.670;2022-12-07T06:49:46;7.00;;;4.67;;
18669;SDS011;9464;44.918;9.670;2022-12-07T06:52:14;7.30;;;5.07;;
18669;SDS011;9464;44.918;9.670;2022-12-07T06:54:43;13.43;;;5.27;;
18669;SDS011;9464;44.918;9.670;2022-12-07T06:57:11;10.73;;;4.97;;
18669;SDS011;9464;44.918;9.670;2022-12-07T06:59:40;8.63;;;5.70;;
18669;SDS011;9464;44.918;9.670;2022-12-07T07:02:08;10.40;;;6.87;;
18669;SDS011;9464;44.918;9.670;2022-12-07T07:04:37;11.17;;;6.23;;
18669;SDS011;9464;44.918;9.670;2022-12-07T07:07:06;8.60;;;5.53;;
18669;SDS011;9464;44.918;9.670;2022-12-07T07:09:35;9.30;;;5.67;;
18669;SDS011;9464;44.918;9.670;2022-12-07T07:12:03;13.73;;;7.67;;
18669;SDS011;9464;44.918;9.670;2022-12-07T07:14:32;11.17;;;6.97;;
18669;SDS011;9464;44.918;9.670;2022-12-07T07:17:00;14.90;;;7.50;;
18669;SDS011;9464;44.918;9.670;2022-12-07T07:19:29;11.57;;;6.63;;
18669;SDS011;9464;44.918;9.670;2022-12-07T07:21:57;12.60;;;7.20;;
18669;SDS011;9464;44.918;9.670;2022-12-07T07:24:27;17.37;;;7.73;;
18669;SDS011;9464;44.918;9.670;2022-12-07T07:26:55;16.53;;;8.43;;
18669;SDS011;9464;44.918;9.670;2022-12-07T07:29:24;12.33;;;7.77;;
18669;SDS011;9464;44.918;9.670;2022-12-07T07:31:52;11.53;;;7.10;;
18669;SDS011;9464;44.918;9.670;2022-12-07T07:34:21;18.90;;;9.70;;
18669;SDS011;9464;44.918;9.670;2022-12-07T07:36:49;16.20;;;9.67;;
18669;SDS011;9464;44.918;9.670;2022-12-07T07:39:18;16.90;;;10.10;;
18669;SDS011;9464;44.918;9.670;2022-12-07T07:41:48;16.03;;;9.43;;
18669;SDS011;9464;44.918;9.670;2022-12-07T07:44:16;16.53;;;9.80;;
18669;SDS011;9464;44.918;9.670;2022-12-07T07:46:45;15.33;;;8.57;;
18669;SDS011;9464;44.918;9.670;2022-12-07T07:49:13;18.30;;;10.20;;
18669;SDS011;9464;44.918;9.670;2022-12-07T07:51:41;193.70;;;83.67;;
18669;SDS011;9464;44.918;9.670;2022-12-07T07:54:10;21.40;;;12.60;;
18669;SDS011;9464;44.918;9.670;2022-12-07T07:56:39;24.63;;;9.80;;
18669;SDS011;9464;44.918;9.670;2022-12-07T07:59:09;19.43;;;8.77;;
18669;SDS011;9464;44.918;9.670;2022-12-07T08:01:37;15.57;;;8.13;;
18669;SDS011;9464;44.918;9.670;2022-12-07T08:04:06;18.40;;;8.40;;
18669;SDS011;9464;44.918;9.670;2022-12-07T08:06:34;27.27;;;9.00;;
18669;SDS011;9464;44.918;9.670;2022-12-07T08:09:03;18.10;;;8.47;;
18669;SDS011;9464;44.918;9.670;2022-12-07T08:11:32;19.07;;;9.97;;
18669;SDS011;9464;44.918;9.670;2022-12-07T08:14:01;35.37;;;9.63;;
18669;SDS011;9464;44.918;9.670;2022-12-07T08:16:31;22.27;;;8.87;;
18669;SDS011;9464;44.918;9.670;2022-12-07T08:18:59;14.90;;;8.83;;
18669;SDS011;9464;44.918;9.670;2022-12-07T08:21:28;30.20;;;7.90;;
18669;SDS011;9464;44.918;9.670;2022-12-07T08:23:56;16.70;;;8.93;;
18669;SDS011;9464;44.918;9.670;2022-12-07T08:26:25;20.40;;;9.33;;
18669;SDS011;9464;44.918;9.670;2022-12-07T08:28:53;28.03;;;8.93;;
18669;SDS011;9464;44.918;9.670;2022-12-07T08:31:22;14.00;;;8.13;;
18669;SDS011;9464;44.918;9.670;2022-12-07T08:33:52;18.40;;;9.73;;
18669;SDS011;9464;44.918;9.670;2022-12-07T08:36:20;14.43;;;8.53;;
18669;SDS011;9464;44.918;9.670;2022-12-07T08:38:49;25.23;;;9.30;;
18669;SDS011;9464;44.918;9.670;2022-12-07T08:41:37;15.13;;;8.63;;
18669;SDS011;9464;44.918;9.670;2022-12-07T08:44:06;16.13;;;8.60;;
18669;SDS011;9464;44.918;9.670;2022-12-07T08:46:35;27.20;;;8.90;;
18669;SDS011;9464;44.918;9.670;2022-12-07T08:49:09;16.47;;;8.13;;
18669;SDS011;9464;44.918;9.670;2022-12-07T08:51:39;11.80;;;7.63;;
18669;SDS011;9464;44.918;9.670;2022-12-07T08:54:09;13.43;;;7.57;;
18669;SDS011;9464;44.918;9.670;2022-12-07T08:56:38;13.63;;;7.70;;
18669;SDS011;9464;44.918;9.670;2022-12-07T08:59:07;19.53;;;7.57;;
18669;SDS011;9464;44.918;9.670;2022-12-07T09:01:35;15.40;;;7.97;;
18669;SDS011;9464;44.918;9.670;2022-12-07T09:04:04;19.13;;;8.60;;
18669;SDS011;9464;44.918;9.670;2022-12-07T09:06:34;45.47;;;18.17;;
18669;SDS011;9464;44.918;9.670;2022-12-07T09:09:03;16.83;;;9.10;;
18669;SDS011;9464;44.918;9.670;2022-12-07T09:11:32;17.43;;;7.70;;
18669;SDS011;9464;44.918;9.670;2022-12-07T09:14:01;11.93;;;7.80;;
18669;SDS011;9464;44.918;9.670;2022-12-07T09:16:29;18.63;;;7.10;;
18669;SDS011;9464;44.918;9.670;2022-12-07T09:18:58;22.20;;;8.40;;
18669;SDS011;9464;44.918;9.670;2022-12-07T09:21:26;18.63;;;8.33;;
18669;SDS011;9464;44.918;9.670;2022-12-07T09:23:56;13.30;;;7.43;;
18669;SDS011;9464;44.918;9.670;2022-12-07T09:26:25;16.00;;;8.30;;
18669;SDS011;9464;44.918;9.670;2022-12-07T09:28:53;21.93;;;8.00;;
18669;SDS011;9464;44.918;9.670;2022-12-07T09:31:22;16.47;;;8.03;;
18669;SDS011;9464;44.918;9.670;2022-12-07T09:33:54;13.30;;;8.10;;
18669;SDS011;9464;44.918;9.670;2022-12-07T09:36:23;14.50;;;8.00;;
18669;SDS011;9464;44.918;9.670;2022-12-07T09:38:51;32.20;;;8.90;;
18669;SDS011;9464;44.918;9.670;2022-12-07T09:41:21;21.93;;;8.30;;
18669;SDS011;9464;44.918;9.670;2022-12-07T09:43:51;13.80;;;7.77;;
18669;SDS011;9464;44.918;9.670;2022-12-07T09:46:20;17.63;;;7.90;;
18669;SDS011;9464;44.918;9.670;2022-12-07T09:48:49;16.40;;;8.27;;
18669;SDS011;9464;44.918;9.670;2022-12-07T09:51:19;24.43;;;8.77;;
18669;SDS011;9464;44.918;9.670;2022-12-07T09:53:51;12.77;;;7.30;;
18669;SDS011;9464;44.918;9.670;2022-12-07T09:56:20;14.10;;;7.53;;
18669;SDS011;9464;44.918;9.670;2022-12-07T09:58:50;13.60;;;7.17;;
18669;SDS011;9464;44.918;9.670;2022-12-07T10:01:20;11.03;;;6.53;;
18669;SDS011;9464;44.918;9.670;2022-12-07T10:03:49;12.93;;;7.30;;
18669;SDS011;9464;44.918;9.670;2022-12-07T10:06:18;15.00;;;7.03;;
18669;SDS011;9464;44.918;9.670;2022-12-07T10:08:47;13.77;;;7.67;;
18669;SDS011;9464;44.918;9.670;2022-12-07T10:11:15;13.63;;;7.17;;
18669;SDS011;9464;44.918;9.670;2022-12-07T10:13:45;56.80;;;10.90;;
18669;SDS011;9464;44.918;9.670;2022-12-07T10:16:35;15.23;;;9.47;;
18669;SDS011;9464;44.918;9.670;2022-12-07T10:19:18;16.53;;;9.77;;
18669;SDS011;9464;44.918;9.670;2022-12-07T10:22:00;18.60;;;9.00;;
18669;SDS011;9464;44.918;9.670;2022-12-07T10:24:29;17.37;;;9.10;;
18669;SDS011;9464;44.918;9.670;2022-12-07T10:26:57;17.37;;;9.57;;
18669;SDS011;9464;44.918;9.670;2022-12-07T10:29:28;19.80;;;10.90;;
18669;SDS011;9464;44.918;9.670;2022-12-07T10:31:59;18.87;;;9.53;;
18669;SDS011;9464;44.918;9.670;2022-12-07T10:34:28;28.50;;;10.90;;
18669;SDS011;9464;44.918;9.670;2022-12-07T10:39:55;21.77;;;11.43;;
18669;SDS011;9464;44.918;9.670;2022-12-07T10:42:25;14.73;;;9.27;;
18669;SDS011;9464;44.918;9.670;2022-12-07T10:45:06;20.37;;;11.43;;
18669;SDS011;9464;44.918;9.670;2022-12-07T10:47:38;23.93;;;12.10;;
18669;SDS011;9464;44.918;9.670;2022-12-07T10:50:17;21.33;;;11.07;;
18669;SDS011;9464;44.918;9.670;2022-12-07T10:52:56;21.73;;;11.37;;
18669;SDS011;9464;44.918;9.670;2022-12-07T10:55:39;19.50;;;10.93;;
18669;SDS011;9464;44.918;9.670;2022-12-07T10:58:17;24.47;;;12.67;;
18669;SDS011;9464;44.918;9.670;2022-12-07T11:00:50;27.20;;;12.73;;
18669;SDS011;9464;44.918;9.670;2022-12-07T11:03:25;19.57;;;12.67;;
18669;SDS011;9464;44.918;9.670;2022-12-07T11:06:00;26.20;;;13.10;;
18669;SDS011;9464;44.918;9.670;2022-12-07T11:08:37;25.63;;;14.00;;
18669;SDS011;9464;44.918;9.670;2022-12-07T11:11:09;26.07;;;14.70;;
18669;SDS011;9464;44.918;9.670;2022-12-07T11:13:44;25.60;;;14.80;;
18669;SDS011;9464;44.918;9.670;2022-12-07T11:16:22;28.30;;;14.07;;
18669;SDS011;9464;44.918;9.670;2022-12-07T11:18:58;28.90;;;14.23;;
18669;SDS011;9464;44.918;9.670;2022-12-07T11:21:30;28.73;;;14.73;;
18669;SDS011;9464;44.918;9.670;2022-12-07T11:24:04;28.73;;;15.07;;
18669;SDS011;9464;44.918;9.670;2022-12-07T11:26:41;31.47;;;15.87;;
18669;SDS011;9464;44.918;9.670;2022-12-07T11:29:24;29.70;;;14.90;;
18669;SDS011;9464;44.918;9.670;2022-12-07T11:31:56;30.13;;;15.33;;
18669;SDS011;9464;44.918;9.670;2022-12-07T11:34:29;32.67;;;16.80;;
18669;SDS011;9464;44.918;9.670;2022-12-07T11:37:00;30.83;;;16.00;;
18669;SDS011;9464;44.918;9.670;2022-12-07T11:39:33;29.17;;;14.97;;
18669;SDS011;9464;44.918;9.670;2022-12-07T11:42:04;29.20;;;15.60;;
18669;SDS011;9464;44.918;9.670;2022-12-07T11:44:34;27.47;;;15.20;;
18669;SDS011;9464;44.918;9.670;2022-12-07T11:47:05;27.27;;;15.60;;
18669;SDS011;9464;44.918;9.670;2022-12-07T11:49:39;27.63;;;14.23;;
18669;SDS011;9464;44.918;9.670;2022-12-07T11:52:11;37.73;;;15.67;;
18669;SDS011;9464;44.918;9.670;2022-12-07T11:54:43;24.80;;;14.07;;
18669;SDS011;9464;44.918;9.670;2022-12-07T11:57:16;27.07;;;15.30;;
18669;SDS011;9464;44.918;9.670;2022-12-07T11:59:47;29.50;;;14.80;;
18669;SDS011;9464;44.918;9.670;2022-12-07T12:02:19;29.03;;;15.23;;
18669;SDS011;9464;44.918;9.670;2022-12-07T12:04:54;29.77;;;15.07;;
18669;SDS011;9464;44.918;9.670;2022-12-07T12:07:24;36.40;;;16.10;;
18669;SDS011;9464;44.918;9.670;2022-12-07T12:10:15;27.27;;;15.00;;
18669;SDS011;9464;44.918;9.670;2022-12-07T12:12:48;32.33;;;16.13;;
18669;SDS011;9464;44.918;9.670;2022-12-07T12:15:44;30.47;;;16.13;;
18669;SDS011;9464;44.918;9.670;2022-12-07T12:18:23;31.13;;;16.10;;
18669;SDS011;9464;44.918;9.670;2022-12-07T12:20:57;34.83;;;16.77;;
18669;SDS011;9464;44.918;9.670;2022-12-07T12:23:32;36.50;;;17.17;;
18669;SDS011;9464;44.918;9.670;2022-12-07T12:26:05;37.27;;;17.17;;
18669;SDS011;9464;44.918;9.670;2022-12-07T12:28:35;45.20;;;19.40;;
18669;SDS011;9464;44.918;9.670;2022-12-07T12:31:15;37.07;;;18.03;;
18669;SDS011;9464;44.918;9.670;2022-12-07T12:33:45;38.20;;;17.07;;
18669;SDS011;9464;44.918;9.670;2022-12-07T12:36:21;34.80;;;17.47;;
18669;SDS011;9464;44.918;9.670;2022-12-07T12:38:51;34.23;;;17.90;;
18669;SDS011;9464;44.918;9.670;2022-12-07T12:44:40;35.90;;;17.83;;
18669;SDS011;9464;44.918;9.670;2022-12-07T12:53:14;34.30;;;18.17;;
18669;SDS011;9464;44.918;9.670;2022-12-07T12:55:47;42.20;;;17.83;;
18669;SDS011;9464;44.918;9.670;2022-12-07T12:58:28;39.33;;;19.53;;
18669;SDS011;9464;44.918;9.670;2022-12-07T13:03:59;49.43;;;21.70;;
18669;SDS011;9464;44.918;9.670;2022-12-07T13:06:32;44.40;;;21.70;;
18669;SDS011;9464;44.918;9.670;2022-12-07T13:09:16;48.87;;;22.13;;
18669;SDS011;9464;44.918;9.670;2022-12-07T13:11:46;45.83;;;21.20;;
18669;SDS011;9464;44.918;9.670;2022-12-07T13:17:00;48.83;;;21.67;;
18669;SDS011;9464;44.918;9.670;2022-12-07T13:22:36;122.93;;;55.97;;
18669;SDS011;9464;44.918;9.670;2022-12-07T13:25:09;44.27;;;24.00;;
18669;SDS011;9464;44.918;9.670;2022-12-07T13:27:39;44.37;;;21.20;;
18669;SDS011;9464;44.918;9.670;2022-12-07T13:30:11;58.57;;;23.37;;
18669;SDS011;9464;44.918;9.670;2022-12-07T13:32:41;45.20;;;22.87;;
18669;SDS011;9464;44.918;9.670;2022-12-07T13:35:30;51.47;;;23.27;;
18669;SDS011;9464;44.918;9.670;2022-12-07T13:38:00;50.63;;;24.17;;
18669;SDS011;9464;44.918;9.670;2022-12-07T13:40:31;46.13;;;22.57;;
18669;SDS011;9464;44.918;9.670;2022-12-07T13:43:00;52.70;;;25.57;;
18669;SDS011;9464;44.918;9.670;2022-12-07T13:45:29;49.73;;;25.30;;
18669;SDS011;9464;44.918;9.670;2022-12-07T13:48:19;48.63;;;24.30;;
18669;SDS011;9464;44.918;9.670;2022-12-07T13:50:52;50.53;;;23.43;;
18669;SDS011;9464;44.918;9.670;2022-12-07T13:53:22;47.17;;;23.37;;
18669;SDS011;9464;44.918;9.670;2022-12-07T13:55:52;41.43;;;22.20;;
18669;SDS011;9464;44.918;9.670;2022-12-07T13:58:20;50.87;;;23.27;;
18669;SDS011;9464;44.918;9.670;2022-12-07T14:00:49;50.03;;;22.60;;
18669;SDS011;9464;44.918;9.670;2022-12-07T14:03:29;52.77;;;24.07;;
18669;SDS011;9464;44.918;9.670;2022-12-07T14:06:05;57.37;;;25.03;;
18669;SDS011;9464;44.918;9.670;2022-12-07T14:08:35;50.57;;;24.23;;
18669;SDS011;9464;44.918;9.670;2022-12-07T14:11:04;48.07;;;23.83;;
18669;SDS011;9464;44.918;9.670;2022-12-07T14:13:33;45.73;;;23.90;;
18669;SDS011;9464;44.918;9.670;2022-12-07T14:16:03;89.10;;;42.77;;
18669;SDS011;9464;44.918;9.670;2022-12-07T14:18:36;52.90;;;25.43;;
18669;SDS011;9464;44.918;9.670;2022-12-07T14:21:05;50.03;;;25.00;;
18669;SDS011;9464;44.918;9.670;2022-12-07T14:23:34;55.33;;;26.00;;
18669;SDS011;9464;44.918;9.670;2022-12-07T14:26:09;52.83;;;25.10;;
18669;SDS011;9464;44.918;9.670;2022-12-07T14:28:39;57.97;;;26.20;;
18669;SDS011;9464;44.918;9.670;2022-12-07T14:31:10;52.97;;;24.03;;
18669;SDS011;9464;44.918;9.670;2022-12-07T14:33:49;63.10;;;29.10;;
18669;SDS011;9464;44.918;9.670;2022-12-07T14:36:17;52.70;;;26.80;;
18669;SDS011;9464;44.918;9.670;2022-12-07T14:38:46;49.40;;;24.63;;
18669;SDS011;9464;44.918;9.670;2022-12-07T14:41:17;52.50;;;25.23;;
18669;SDS011;9464;44.918;9.670;2022-12-07T14:44:07;51.27;;;25.43;;
18669;SDS011;9464;44.918;9.670;2022-12-07T14:46:57;59.40;;;26.10;;
18669;SDS011;9464;44.918;9.670;2022-12-07T14:49:45;45.53;;;23.43;;
18669;SDS011;9464;44.918;9.670;2022-12-07T14:52:14;48.73;;;23.23;;
18669;SDS011;9464;44.918;9.670;2022-12-07T14:55:03;49.77;;;24.47;;
18669;SDS011;9464;44.918;9.670;2022-12-07T14:57:33;58.27;;;25.77;;
18669;SDS011;9464;44.918;9.670;2022-12-07T15:00:02;53.50;;;24.93;;
18669;SDS011;9464;44.918;9.670;2022-12-07T15:02:30;50.63;;;25.27;;
18669;SDS011;9464;44.918;9.670;2022-12-07T15:04:59;48.73;;;23.27;;
18669;SDS011;9464;44.918;9.670;2022-12-07T15:07:28;52.33;;;24.80;;
18669;SDS011;9464;44.918;9.670;2022-12-07T15:09:57;50.40;;;25.20;;
18669;SDS011;9464;44.918;9.670;2022-12-07T15:12:25;50.00;;;23.70;;
18669;SDS011;9464;44.918;9.670;2022-12-07T15:14:57;49.57;;;23.00;;
18669;SDS011;9464;44.918;9.670;2022-12-07T15:17:28;46.47;;;23.57;;
18669;SDS011;9464;44.918;9.670;2022-12-07T15:19:58;51.37;;;24.80;;
18669;SDS011;9464;44.918;9.670;2022-12-07T15:22:26;46.00;;;23.40;;
18669;SDS011;9464;44.918;9.670;2022-12-07T15:25:03;49.23;;;23.77;;
18669;SDS011;9464;44.918;9.670;2022-12-07T15:27:33;52.90;;;25.07;;
18669;SDS011;9464;44.918;9.670;2022-12-07T15:30:04;47.13;;;23.30;;
18669;SDS011;9464;44.918;9.670;2022-12-07T15:32:32;53.63;;;25.03;;
18669;SDS011;9464;44.918;9.670;2022-12-07T15:35:01;43.07;;;22.07;;